sensor_id;sensor_type;location;lat;lon;timestamp;temperature;humidity
66337;SHT30;53139;45.576;5.304;2022-08-04T00:03:09;27.38;37.05
66337;SHT30;53139;45.576;5.304;2022-08-04T00:06:19;27.44;36.66
66337;SHT30;53139;45.576;5.304;2022-08-04T00:09:48;27.46;36.40
66337;SHT30;53139;45.576;5.304;2022-08-04T00:12:54;27.38;36.39
66337;SHT30;53139;45.576;5.304;2022-08-04T00:16:04;27.44;35.74
66337;SHT30;53139;45.576;5.304;2022-08-04T00:19:11;27.44;35.35
66337;SHT30;53139;45.576;5.304;2022-08-04T00:22:17;27.29;35.64
66337;SHT30;53139;45.576;5.304;2022-08-04T00:25:19;27.46;34.74
66337;SHT30;53139;45.576;5.304;2022-08-04T00:28:20;27.29;35.13
66337;SHT30;53139;45.576;5.304;2022-08-04T00:31:21;27.43;34.84
66337;SHT30;53139;45.576;5.304;2022-08-04T00:34:27;27.26;35.27
66337;SHT30;53139;45.576;5.304;2022-08-04T00:37:28;27.40;35.12
66337;SHT30;53139;45.576;5.304;2022-08-04T00:51:14;27.27;36.42
66337;SHT30;53139;45.576;5.304;2022-08-04T00:54:36;27.41;36.47
66337;SHT30;53139;45.576;5.304;2022-08-04T00:58:26;27.40;36.84
66337;SHT30;53139;45.576;5.304;2022-08-04T01:01:54;27.26;37.31
66337;SHT30;53139;45.576;5.304;2022-08-04T01:05:21;27.34;37.44
66337;SHT30;53139;45.576;5.304;2022-08-04T01:16:09;27.34;38.17
66337;SHT30;53139;45.576;5.304;2022-08-04T01:19:00;27.33;38.33
66337;SHT30;53139;45.576;5.304;2022-08-04T01:29:03;27.38;39.28
66337;SHT30;53139;45.576;5.304;2022-08-04T01:32:06;27.38;39.43
66337;SHT30;53139;45.576;5.304;2022-08-04T01:35:24;27.31;39.50
66337;SHT30;53139;45.576;5.304;2022-08-04T01:38:38;27.31;39.46
66337;SHT30;53139;45.576;5.304;2022-08-04T01:41:39;27.24;39.56
66337;SHT30;53139;45.576;5.304;2022-08-04T01:44:40;27.00;40.10
66337;SHT30;53139;45.576;5.304;2022-08-04T01:47:47;26.99;39.94
66337;SHT30;53139;45.576;5.304;2022-08-04T01:50:51;26.64;41.36
66337;SHT30;53139;45.576;5.304;2022-08-04T01:53:52;26.51;41.63
66337;SHT30;53139;45.576;5.304;2022-08-04T01:56:53;26.28;42.40
66337;SHT30;53139;45.576;5.304;2022-08-04T01:59:57;26.31;41.76
66337;SHT30;53139;45.576;5.304;2022-08-04T02:02:58;26.03;43.11
66337;SHT30;53139;45.576;5.304;2022-08-04T02:06:07;25.90;43.11
66337;SHT30;53139;45.576;5.304;2022-08-04T02:09:23;25.89;43.07
66337;SHT30;53139;45.576;5.304;2022-08-04T02:22:24;25.61;43.79
66337;SHT30;53139;45.576;5.304;2022-08-04T02:25:28;25.54;43.81
66337;SHT30;53139;45.576;5.304;2022-08-04T02:29:20;25.54;43.70
66337;SHT30;53139;45.576;5.304;2022-08-04T02:32:28;25.47;43.40
66337;SHT30;53139;45.576;5.304;2022-08-04T02:35:35;25.24;44.31
66337;SHT30;53139;45.576;5.304;2022-08-04T02:38:52;25.19;44.34
66337;SHT30;53139;45.576;5.304;2022-08-04T02:41:55;25.13;44.50
66337;SHT30;53139;45.576;5.304;2022-08-04T02:44:57;24.82;45.79
66337;SHT30;53139;45.576;5.304;2022-08-04T02:48:00;24.92;45.12
66337;SHT30;53139;45.576;5.304;2022-08-04T02:51:02;24.76;45.30
66337;SHT30;53139;45.576;5.304;2022-08-04T02:54:04;24.84;45.45
66337;SHT30;53139;45.576;5.304;2022-08-04T02:57:10;24.89;45.80
66337;SHT30;53139;45.576;5.304;2022-08-04T03:00:12;24.59;46.21
66337;SHT30;53139;45.576;5.304;2022-08-04T03:03:41;24.59;46.00
66337;SHT30;53139;45.576;5.304;2022-08-04T03:07:14;24.37;46.97
66337;SHT30;53139;45.576;5.304;2022-08-04T03:10:44;24.37;46.69
66337;SHT30;53139;45.576;5.304;2022-08-04T03:45:27;23.39;47.97
66337;SHT30;53139;45.576;5.304;2022-08-04T03:52:04;23.25;48.35
66337;SHT30;53139;45.576;5.304;2022-08-04T04:25:22;23.00;50.41
66337;SHT30;53139;45.576;5.304;2022-08-04T04:38:31;23.03;52.03
66337;SHT30;53139;45.576;5.304;2022-08-04T04:47:59;23.15;52.14
66337;SHT30;53139;45.576;5.304;2022-08-04T04:54:38;22.84;52.56
66337;SHT30;53139;45.576;5.304;2022-08-04T04:57:40;23.06;52.23
66337;SHT30;53139;45.576;5.304;2022-08-04T05:00:59;23.10;52.38
66337;SHT30;53139;45.576;5.304;2022-08-04T05:04:33;22.92;53.09
66337;SHT30;53139;45.576;5.304;2022-08-04T05:14:07;22.93;50.96
66337;SHT30;53139;45.576;5.304;2022-08-04T05:17:21;22.89;50.83
66337;SHT30;53139;45.576;5.304;2022-08-04T05:20:26;22.73;52.84
66337;SHT30;53139;45.576;5.304;2022-08-04T05:23:28;22.86;52.70
66337;SHT30;53139;45.576;5.304;2022-08-04T05:26:32;22.76;53.88
66337;SHT30;53139;45.576;5.304;2022-08-04T05:29:36;22.96;55.44
66337;SHT30;53139;45.576;5.304;2022-08-04T05:32:59;23.20;55.45
66337;SHT30;53139;45.576;5.304;2022-08-04T05:36:08;23.55;54.19
66337;SHT30;53139;45.576;5.304;2022-08-04T05:39:13;23.65;53.94
66337;SHT30;53139;45.576;5.304;2022-08-04T05:42:14;23.84;53.41
66337;SHT30;53139;45.576;5.304;2022-08-04T05:45:16;23.96;52.76
66337;SHT30;53139;45.576;5.304;2022-08-04T05:48:17;24.00;54.01
66337;SHT30;53139;45.576;5.304;2022-08-04T05:51:18;24.17;53.36
66337;SHT30;53139;45.576;5.304;2022-08-04T05:54:21;24.28;53.18
66337;SHT30;53139;45.576;5.304;2022-08-04T05:57:21;24.37;53.83
66337;SHT30;53139;45.576;5.304;2022-08-04T06:00:23;24.54;53.10
66337;SHT30;53139;45.576;5.304;2022-08-04T06:03:26;24.56;52.88
66337;SHT30;53139;45.576;5.304;2022-08-04T06:06:29;24.69;53.57
66337;SHT30;53139;45.576;5.304;2022-08-04T06:09:30;24.83;52.61
66337;SHT30;53139;45.576;5.304;2022-08-04T06:12:52;25.02;53.24
66337;SHT30;53139;45.576;5.304;2022-08-04T06:15:55;25.10;53.33
66337;SHT30;53139;45.576;5.304;2022-08-04T06:19:00;25.26;53.06
66337;SHT30;53139;45.576;5.304;2022-08-04T06:22:04;25.35;52.62
66337;SHT30;53139;45.576;5.304;2022-08-04T06:25:07;25.39;51.86
66337;SHT30;53139;45.576;5.304;2022-08-04T06:28:10;25.57;53.05
66337;SHT30;53139;45.576;5.304;2022-08-04T06:31:13;25.66;51.17
66337;SHT30;53139;45.576;5.304;2022-08-04T06:34:20;25.86;51.26
66337;SHT30;53139;45.576;5.304;2022-08-04T06:37:22;26.07;53.16
66337;SHT30;53139;45.576;5.304;2022-08-04T06:40:24;26.33;52.63
66337;SHT30;53139;45.576;5.304;2022-08-04T06:43:29;26.38;52.56
66337;SHT30;53139;45.576;5.304;2022-08-04T06:46:30;26.48;51.34
66337;SHT30;53139;45.576;5.304;2022-08-04T06:49:31;26.75;51.88
66337;SHT30;53139;45.576;5.304;2022-08-04T06:52:32;26.91;51.14
66337;SHT30;53139;45.576;5.304;2022-08-04T06:55:33;27.38;48.13
66337;SHT30;53139;45.576;5.304;2022-08-04T06:58:34;27.38;47.90
66337;SHT30;53139;45.576;5.304;2022-08-04T07:01:36;27.66;46.21
66337;SHT30;53139;45.576;5.304;2022-08-04T07:04:37;27.92;46.22
66337;SHT30;53139;45.576;5.304;2022-08-04T07:07:38;28.05;46.00
66337;SHT30;53139;45.576;5.304;2022-08-04T07:10:39;28.17;45.59
66337;SHT30;53139;45.576;5.304;2022-08-04T07:13:40;28.39;44.66
66337;SHT30;53139;45.576;5.304;2022-08-04T07:16:43;28.40;44.05
66337;SHT30;53139;45.576;5.304;2022-08-04T07:19:43;28.81;41.90
66337;SHT30;53139;45.576;5.304;2022-08-04T07:22:45;29.22;40.83
66337;SHT30;53139;45.576;5.304;2022-08-04T07:25:54;29.49;41.50
66337;SHT30;53139;45.576;5.304;2022-08-04T07:28:54;29.74;39.31
66337;SHT30;53139;45.576;5.304;2022-08-04T07:31:57;29.63;38.78
66337;SHT30;53139;45.576;5.304;2022-08-04T07:34:58;30.32;37.94
66337;SHT30;53139;45.576;5.304;2022-08-04T07:37:58;29.91;38.38
66337;SHT30;53139;45.576;5.304;2022-08-04T07:41:00;30.12;37.27
66337;SHT30;53139;45.576;5.304;2022-08-04T07:44:03;30.30;37.30
66337;SHT30;53139;45.576;5.304;2022-08-04T07:47:05;30.43;36.86
66337;SHT30;53139;45.576;5.304;2022-08-04T07:50:08;30.53;35.95
66337;SHT30;53139;45.576;5.304;2022-08-04T07:53:11;30.71;36.36
66337;SHT30;53139;45.576;5.304;2022-08-04T07:56:12;30.75;35.60
66337;SHT30;53139;45.576;5.304;2022-08-04T07:59:14;30.85;36.22
66337;SHT30;53139;45.576;5.304;2022-08-04T08:02:18;30.81;35.33
66337;SHT30;53139;45.576;5.304;2022-08-04T08:05:20;31.08;34.78
66337;SHT30;53139;45.576;5.304;2022-08-04T08:08:20;31.23;34.35
66337;SHT30;53139;45.576;5.304;2022-08-04T08:11:21;31.18;34.52
66337;SHT30;53139;45.576;5.304;2022-08-04T08:14:22;31.28;34.24
66337;SHT30;53139;45.576;5.304;2022-08-04T08:17:22;31.42;34.51
66337;SHT30;53139;45.576;5.304;2022-08-04T08:20:23;31.26;34.37
66337;SHT30;53139;45.576;5.304;2022-08-04T08:23:24;31.43;34.10
66337;SHT30;53139;45.576;5.304;2022-08-04T08:26:26;31.49;34.39
66337;SHT30;53139;45.576;5.304;2022-08-04T08:29:27;31.88;34.21
66337;SHT30;53139;45.576;5.304;2022-08-04T08:32:29;31.78;34.20
66337;SHT30;53139;45.576;5.304;2022-08-04T08:35:35;31.90;33.60
66337;SHT30;53139;45.576;5.304;2022-08-04T08:38:44;31.73;33.14
66337;SHT30;53139;45.576;5.304;2022-08-04T08:42:06;31.90;32.97
66337;SHT30;53139;45.576;5.304;2022-08-04T08:48:43;32.28;32.98
66337;SHT30;53139;45.576;5.304;2022-08-04T08:52:02;32.42;31.46
66337;SHT30;53139;45.576;5.304;2022-08-04T09:02:32;32.81;31.01
66337;SHT30;53139;45.576;5.304;2022-08-04T09:12:29;34.68;28.42
66337;SHT30;53139;45.576;5.304;2022-08-04T09:15:38;34.78;27.71
66337;SHT30;53139;45.576;5.304;2022-08-04T09:18:46;34.95;26.43
66337;SHT30;53139;45.576;5.304;2022-08-04T09:25:23;35.43;26.55
66337;SHT30;53139;45.576;5.304;2022-08-04T09:28:26;35.52;26.27
66337;SHT30;53139;45.576;5.304;2022-08-04T09:35:12;35.77;26.12
66337;SHT30;53139;45.576;5.304;2022-08-04T09:38:25;36.00;25.70
66337;SHT30;53139;45.576;5.304;2022-08-04T09:44:43;35.88;25.95
66337;SHT30;53139;45.576;5.304;2022-08-04T09:47:49;35.89;26.30
66337;SHT30;53139;45.576;5.304;2022-08-04T09:50:58;35.54;26.52
66337;SHT30;53139;45.576;5.304;2022-08-04T09:54:06;36.16;26.27
66337;SHT30;53139;45.576;5.304;2022-08-04T10:00:38;35.74;26.56
66337;SHT30;53139;45.576;5.304;2022-08-04T10:03:47;36.68;26.21
66337;SHT30;53139;45.576;5.304;2022-08-04T10:10:16;36.74;25.94
66337;SHT30;53139;45.576;5.304;2022-08-04T10:16:45;36.82;25.85
66337;SHT30;53139;45.576;5.304;2022-08-04T10:19:52;36.68;26.67
66337;SHT30;53139;45.576;5.304;2022-08-04T10:23:17;36.87;25.81
66337;SHT30;53139;45.576;5.304;2022-08-04T10:30:06;36.43;26.10
66337;SHT30;53139;45.576;5.304;2022-08-04T10:33:59;36.36;26.02
66337;SHT30;53139;45.576;5.304;2022-08-04T10:41:01;37.02;25.00
66337;SHT30;53139;45.576;5.304;2022-08-04T10:47:18;37.26;25.15
66337;SHT30;53139;45.576;5.304;2022-08-04T10:50:22;36.03;25.94
66337;SHT30;53139;45.576;5.304;2022-08-04T10:53:25;37.08;26.30
66337;SHT30;53139;45.576;5.304;2022-08-04T10:56:32;37.08;26.13
66337;SHT30;53139;45.576;5.304;2022-08-04T10:59:52;37.22;25.18
66337;SHT30;53139;45.576;5.304;2022-08-04T11:03:05;36.72;25.70
66337;SHT30;53139;45.576;5.304;2022-08-04T11:06:08;36.84;25.90
66337;SHT30;53139;45.576;5.304;2022-08-04T11:09:09;37.43;24.73
66337;SHT30;53139;45.576;5.304;2022-08-04T11:12:16;37.60;25.64
66337;SHT30;53139;45.576;5.304;2022-08-04T11:15:22;37.40;25.15
66337;SHT30;53139;45.576;5.304;2022-08-04T11:22:14;37.80;25.19
66337;SHT30;53139;45.576;5.304;2022-08-04T11:25:20;38.88;23.35
66337;SHT30;53139;45.576;5.304;2022-08-04T11:32:01;38.59;23.49
66337;SHT30;53139;45.576;5.304;2022-08-04T11:35:06;37.53;24.30
66337;SHT30;53139;45.576;5.304;2022-08-04T11:42:20;39.22;23.97
66337;SHT30;53139;45.576;5.304;2022-08-04T11:45:29;39.76;23.46
66337;SHT30;53139;45.576;5.304;2022-08-04T11:48:39;38.60;23.61
66337;SHT30;53139;45.576;5.304;2022-08-04T11:51:42;38.06;24.69
66337;SHT30;53139;45.576;5.304;2022-08-04T11:54:44;38.18;24.38
66337;SHT30;53139;45.576;5.304;2022-08-04T11:57:45;39.49;23.21
66337;SHT30;53139;45.576;5.304;2022-08-04T12:04:17;39.90;22.70
66337;SHT30;53139;45.576;5.304;2022-08-04T12:11:16;39.01;23.37
66337;SHT30;53139;45.576;5.304;2022-08-04T12:14:29;39.73;23.16
66337;SHT30;53139;45.576;5.304;2022-08-04T12:17:42;40.04;22.46
66337;SHT30;53139;45.576;5.304;2022-08-04T12:20:56;39.37;23.07
66337;SHT30;53139;45.576;5.304;2022-08-04T12:24:02;39.82;22.75
66337;SHT30;53139;45.576;5.304;2022-08-04T12:27:14;40.58;22.23
66337;SHT30;53139;45.576;5.304;2022-08-04T12:30:18;40.38;22.40
66337;SHT30;53139;45.576;5.304;2022-08-04T12:33:39;40.58;22.41
66337;SHT30;53139;45.576;5.304;2022-08-04T12:40:12;39.67;23.11
66337;SHT30;53139;45.576;5.304;2022-08-04T12:43:26;41.03;22.22
66337;SHT30;53139;45.576;5.304;2022-08-04T12:46:29;41.07;21.62
66337;SHT30;53139;45.576;5.304;2022-08-04T12:49:33;41.39;21.67
66337;SHT30;53139;45.576;5.304;2022-08-04T12:52:47;41.90;21.70
66337;SHT30;53139;45.576;5.304;2022-08-04T12:55:49;41.19;22.06
66337;SHT30;53139;45.576;5.304;2022-08-04T12:58:52;40.07;22.28
66337;SHT30;53139;45.576;5.304;2022-08-04T13:01:53;40.84;21.91
66337;SHT30;53139;45.576;5.304;2022-08-04T13:04:58;40.94;21.31
66337;SHT30;53139;45.576;5.304;2022-08-04T13:08:00;39.50;22.41
66337;SHT30;53139;45.576;5.304;2022-08-04T13:11:01;41.64;22.04
66337;SHT30;53139;45.576;5.304;2022-08-04T13:14:04;41.13;21.40
66337;SHT30;53139;45.576;5.304;2022-08-04T13:17:05;39.65;21.78
66337;SHT30;53139;45.576;5.304;2022-08-04T13:20:06;42.10;21.04
66337;SHT30;53139;45.576;5.304;2022-08-04T13:23:13;42.80;19.89
66337;SHT30;53139;45.576;5.304;2022-08-04T13:26:16;41.27;21.13
66337;SHT30;53139;45.576;5.304;2022-08-04T13:29:18;44.70;20.15
66337;SHT30;53139;45.576;5.304;2022-08-04T13:32:21;41.76;20.64
66337;SHT30;53139;45.576;5.304;2022-08-04T13:35:23;44.37;19.14
66337;SHT30;53139;45.576;5.304;2022-08-04T13:38:26;41.14;20.25
66337;SHT30;53139;45.576;5.304;2022-08-04T13:41:28;42.95;19.73
66337;SHT30;53139;45.576;5.304;2022-08-04T13:44:32;42.24;19.15
66337;SHT30;53139;45.576;5.304;2022-08-04T13:47:36;42.04;19.29
66337;SHT30;53139;45.576;5.304;2022-08-04T13:50:44;43.13;18.90
66337;SHT30;53139;45.576;5.304;2022-08-04T13:53:54;42.93;19.08
66337;SHT30;53139;45.576;5.304;2022-08-04T13:56:57;44.08;19.07
66337;SHT30;53139;45.576;5.304;2022-08-04T14:00:04;42.80;18.58
66337;SHT30;53139;45.576;5.304;2022-08-04T14:03:07;43.93;17.89
66337;SHT30;53139;45.576;5.304;2022-08-04T14:06:14;44.13;17.83
66337;SHT30;53139;45.576;5.304;2022-08-04T14:09:17;44.16;16.84
66337;SHT30;53139;45.576;5.304;2022-08-04T14:12:18;43.68;17.54
66337;SHT30;53139;45.576;5.304;2022-08-04T14:18:30;39.98;18.36
66337;SHT30;53139;45.576;5.304;2022-08-04T14:21:35;41.62;18.20
66337;SHT30;53139;45.576;5.304;2022-08-04T14:24:36;42.57;17.16
66337;SHT30;53139;45.576;5.304;2022-08-04T14:30:46;42.66;17.15
66337;SHT30;53139;45.576;5.304;2022-08-04T14:33:49;42.78;17.35
66337;SHT30;53139;45.576;5.304;2022-08-04T14:36:49;43.38;16.61
66337;SHT30;53139;45.576;5.304;2022-08-04T14:39:52;41.93;17.93
66337;SHT30;53139;45.576;5.304;2022-08-04T14:42:54;40.32;17.79
66337;SHT30;53139;45.576;5.304;2022-08-04T14:46:03;40.65;18.33
66337;SHT30;53139;45.576;5.304;2022-08-04T14:49:08;41.99;17.33
66337;SHT30;53139;45.576;5.304;2022-08-04T14:52:09;40.76;18.63
66337;SHT30;53139;45.576;5.304;2022-08-04T14:55:21;41.65;17.49
66337;SHT30;53139;45.576;5.304;2022-08-04T14:58:31;42.09;18.17
66337;SHT30;53139;45.576;5.304;2022-08-04T15:01:33;42.90;17.95
66337;SHT30;53139;45.576;5.304;2022-08-04T15:04:34;42.79;17.35
66337;SHT30;53139;45.576;5.304;2022-08-04T15:07:35;41.42;18.15
66337;SHT30;53139;45.576;5.304;2022-08-04T15:10:36;41.42;17.54
66337;SHT30;53139;45.576;5.304;2022-08-04T15:13:36;43.98;17.01
66337;SHT30;53139;45.576;5.304;2022-08-04T15:16:37;41.99;17.20
66337;SHT30;53139;45.576;5.304;2022-08-04T15:19:37;43.27;17.08
66337;SHT30;53139;45.576;5.304;2022-08-04T15:22:38;42.50;17.32
66337;SHT30;53139;45.576;5.304;2022-08-04T15:25:44;42.02;18.34
66337;SHT30;53139;45.576;5.304;2022-08-04T15:28:52;42.40;17.42
66337;SHT30;53139;45.576;5.304;2022-08-04T15:31:54;42.64;17.77
66337;SHT30;53139;45.576;5.304;2022-08-04T15:35:01;41.00;18.46
66337;SHT30;53139;45.576;5.304;2022-08-04T15:38:08;40.34;18.94
66337;SHT30;53139;45.576;5.304;2022-08-04T15:41:41;41.64;19.09
66337;SHT30;53139;45.576;5.304;2022-08-04T15:51:02;40.35;19.21
66337;SHT30;53139;45.576;5.304;2022-08-04T15:58:01;42.26;18.35
66337;SHT30;53139;45.576;5.304;2022-08-04T16:04:23;40.20;19.29
66337;SHT30;53139;45.576;5.304;2022-08-04T16:07:53;41.07;18.81
66337;SHT30;53139;45.576;5.304;2022-08-04T16:10:56;41.55;18.62
66337;SHT30;53139;45.576;5.304;2022-08-04T16:17:13;39.86;19.61
66337;SHT30;53139;45.576;5.304;2022-08-04T16:20:14;40.82;19.68
66337;SHT30;53139;45.576;5.304;2022-08-04T16:29:40;41.23;19.15
66337;SHT30;53139;45.576;5.304;2022-08-04T16:32:43;40.63;19.23
66337;SHT30;53139;45.576;5.304;2022-08-04T16:35:44;41.30;19.19
66337;SHT30;53139;45.576;5.304;2022-08-04T16:39:01;40.55;19.66
66337;SHT30;53139;45.576;5.304;2022-08-04T16:42:32;40.21;19.96
66337;SHT30;53139;45.576;5.304;2022-08-04T16:45:49;38.80;20.88
66337;SHT30;53139;45.576;5.304;2022-08-04T16:49:05;39.25;20.75
66337;SHT30;53139;45.576;5.304;2022-08-04T16:52:06;39.21;20.90
66337;SHT30;53139;45.576;5.304;2022-08-04T16:55:07;39.50;20.38
66337;SHT30;53139;45.576;5.304;2022-08-04T16:58:08;39.38;21.03
66337;SHT30;53139;45.576;5.304;2022-08-04T17:01:11;39.96;20.73
66337;SHT30;53139;45.576;5.304;2022-08-04T17:04:12;38.43;21.41
66337;SHT30;53139;45.576;5.304;2022-08-04T17:07:13;38.64;21.72
66337;SHT30;53139;45.576;5.304;2022-08-04T17:10:13;38.68;21.92
66337;SHT30;53139;45.576;5.304;2022-08-04T17:16:22;37.81;22.33
66337;SHT30;53139;45.576;5.304;2022-08-04T17:19:24;38.64;22.02
66337;SHT30;53139;45.576;5.304;2022-08-04T17:22:24;38.11;22.09
66337;SHT30;53139;45.576;5.304;2022-08-04T17:25:25;38.12;22.13
66337;SHT30;53139;45.576;5.304;2022-08-04T17:28:25;37.32;22.62
66337;SHT30;53139;45.576;5.304;2022-08-04T17:31:27;37.70;22.79
66337;SHT30;53139;45.576;5.304;2022-08-04T17:34:29;37.27;22.93
66337;SHT30;53139;45.576;5.304;2022-08-04T17:37:29;37.44;23.04
66337;SHT30;53139;45.576;5.304;2022-08-04T17:40:30;37.13;23.51
66337;SHT30;53139;45.576;5.304;2022-08-04T17:46:40;36.77;24.06
66337;SHT30;53139;45.576;5.304;2022-08-04T17:49:40;36.82;23.90
66337;SHT30;53139;45.576;5.304;2022-08-04T17:52:41;36.20;24.81
66337;SHT30;53139;45.576;5.304;2022-08-04T17:58:41;35.92;25.17
66337;SHT30;53139;45.576;5.304;2022-08-04T18:01:52;35.90;25.14
66337;SHT30;53139;45.576;5.304;2022-08-04T18:04:52;35.30;25.66
66337;SHT30;53139;45.576;5.304;2022-08-04T18:07:53;35.24;25.51
66337;SHT30;53139;45.576;5.304;2022-08-04T18:10:53;35.11;25.81
66337;SHT30;53139;45.576;5.304;2022-08-04T18:13:54;35.21;25.69
66337;SHT30;53139;45.576;5.304;2022-08-04T18:16:55;35.17;25.66
66337;SHT30;53139;45.576;5.304;2022-08-04T18:19:55;34.80;25.78
66337;SHT30;53139;45.576;5.304;2022-08-04T18:22:56;34.66;25.69
66337;SHT30;53139;45.576;5.304;2022-08-04T18:25:56;34.44;26.21
66337;SHT30;53139;45.576;5.304;2022-08-04T18:28:56;33.99;26.81
66337;SHT30;53139;45.576;5.304;2022-08-04T18:31:57;34.40;26.04
66337;SHT30;53139;45.576;5.304;2022-08-04T18:34:57;34.23;25.77
66337;SHT30;53139;45.576;5.304;2022-08-04T18:37:58;33.94;26.00
66337;SHT30;53139;45.576;5.304;2022-08-04T18:40:59;34.03;25.70
66337;SHT30;53139;45.576;5.304;2022-08-04T18:43:59;33.63;26.05
66337;SHT30;53139;45.576;5.304;2022-08-04T18:47:00;33.73;26.00
66337;SHT30;53139;45.576;5.304;2022-08-04T18:50:01;33.58;26.20
66337;SHT30;53139;45.576;5.304;2022-08-04T18:53:01;33.63;26.20
66337;SHT30;53139;45.576;5.304;2022-08-04T18:56:03;33.46;26.39
66337;SHT30;53139;45.576;5.304;2022-08-04T18:59:04;33.42;26.51
66337;SHT30;53139;45.576;5.304;2022-08-04T19:02:05;33.17;26.95
66337;SHT30;53139;45.576;5.304;2022-08-04T19:05:05;33.10;27.21
66337;SHT30;53139;45.576;5.304;2022-08-04T19:08:06;33.03;27.45
66337;SHT30;53139;45.576;5.304;2022-08-04T19:11:06;32.80;27.92
66337;SHT30;53139;45.576;5.304;2022-08-04T19:14:07;32.74;27.99
66337;SHT30;53139;45.576;5.304;2022-08-04T19:17:08;32.21;28.90
66337;SHT30;53139;45.576;5.304;2022-08-04T19:20:08;31.60;30.68
66337;SHT30;53139;45.576;5.304;2022-08-04T19:23:09;32.11;29.24
66337;SHT30;53139;45.576;5.304;2022-08-04T19:26:09;31.90;29.67
66337;SHT30;53139;45.576;5.304;2022-08-04T19:29:09;31.92;29.70
66337;SHT30;53139;45.576;5.304;2022-08-04T19:32:12;31.80;29.75
66337;SHT30;53139;45.576;5.304;2022-08-04T19:35:12;31.97;28.70
66337;SHT30;53139;45.576;5.304;2022-08-04T19:38:13;32.04;28.34
66337;SHT30;53139;45.576;5.304;2022-08-04T19:41:14;32.04;28.20
66337;SHT30;53139;45.576;5.304;2022-08-04T19:44:14;32.04;28.09
66337;SHT30;53139;45.576;5.304;2022-08-04T19:47:15;31.84;28.28
66337;SHT30;53139;45.576;5.304;2022-08-04T19:50:15;31.80;28.43
66337;SHT30;53139;45.576;5.304;2022-08-04T19:53:16;31.87;28.22
66337;SHT30;53139;45.576;5.304;2022-08-04T19:56:17;31.70;28.39
66337;SHT30;53139;45.576;5.304;2022-08-04T19:59:18;31.63;28.66
66337;SHT30;53139;45.576;5.304;2022-08-04T20:02:18;31.72;28.65
66337;SHT30;53139;45.576;5.304;2022-08-04T20:05:19;31.64;28.90
66337;SHT30;53139;45.576;5.304;2022-08-04T20:08:19;31.56;29.31
66337;SHT30;53139;45.576;5.304;2022-08-04T20:11:20;31.49;29.81
66337;SHT30;53139;45.576;5.304;2022-08-04T20:14:20;31.51;30.22
66337;SHT30;53139;45.576;5.304;2022-08-04T20:17:22;31.47;30.52
66337;SHT30;53139;45.576;5.304;2022-08-04T20:20:23;31.26;31.01
66337;SHT30;53139;45.576;5.304;2022-08-04T20:23:23;31.32;30.98
66337;SHT30;53139;45.576;5.304;2022-08-04T20:26:23;31.12;31.65
66337;SHT30;53139;45.576;5.304;2022-08-04T20:29:24;31.11;31.75
66337;SHT30;53139;45.576;5.304;2022-08-04T20:32:25;31.11;31.69
66337;SHT30;53139;45.576;5.304;2022-08-04T20:35:27;30.88;32.42
66337;SHT30;53139;45.576;5.304;2022-08-04T20:38:28;31.03;31.90
66337;SHT30;53139;45.576;5.304;2022-08-04T20:41:28;30.92;31.77
66337;SHT30;53139;45.576;5.304;2022-08-04T20:44:28;30.91;31.63
66337;SHT30;53139;45.576;5.304;2022-08-04T20:47:32;30.77;31.60
66337;SHT30;53139;45.576;5.304;2022-08-04T20:50:32;30.74;31.25
66337;SHT30;53139;45.576;5.304;2022-08-04T20:53:33;30.73;31.13
66337;SHT30;53139;45.576;5.304;2022-08-04T20:56:33;30.77;30.48
66337;SHT30;53139;45.576;5.304;2022-08-04T20:59:34;30.63;30.71
66337;SHT30;53139;45.576;5.304;2022-08-04T21:02:35;30.52;30.66
66337;SHT30;53139;45.576;5.304;2022-08-04T21:05:35;30.48;30.59
66337;SHT30;53139;45.576;5.304;2022-08-04T21:08:35;30.39;30.61
66337;SHT30;53139;45.576;5.304;2022-08-04T21:11:36;30.39;30.51
66337;SHT30;53139;45.576;5.304;2022-08-04T21:14:36;30.30;30.59
66337;SHT30;53139;45.576;5.304;2022-08-04T21:17:36;30.16;30.79
66337;SHT30;53139;45.576;5.304;2022-08-04T21:20:37;30.12;30.81
66337;SHT30;53139;45.576;5.304;2022-08-04T21:23:37;29.97;31.08
66337;SHT30;53139;45.576;5.304;2022-08-04T21:26:37;29.92;31.12
66337;SHT30;53139;45.576;5.304;2022-08-04T21:29:38;29.88;31.14
66337;SHT30;53139;45.576;5.304;2022-08-04T21:32:38;29.81;31.34
66337;SHT30;53139;45.576;5.304;2022-08-04T21:35:38;29.67;31.72
66337;SHT30;53139;45.576;5.304;2022-08-04T21:38:39;29.71;31.59
66337;SHT30;53139;45.576;5.304;2022-08-04T21:41:39;29.57;31.87
66337;SHT30;53139;45.576;5.304;2022-08-04T21:44:40;29.47;32.06
66337;SHT30;53139;45.576;5.304;2022-08-04T21:47:40;29.51;32.27
66337;SHT30;53139;45.576;5.304;2022-08-04T21:50:41;29.46;32.46
66337;SHT30;53139;45.576;5.304;2022-08-04T21:53:41;29.45;32.52
66337;SHT30;53139;45.576;5.304;2022-08-04T21:56:41;29.50;32.44
66337;SHT30;53139;45.576;5.304;2022-08-04T21:59:42;29.30;32.71
66337;SHT30;53139;45.576;5.304;2022-08-04T22:02:42;29.29;33.02
66337;SHT30;53139;45.576;5.304;2022-08-04T22:05:42;29.30;32.87
66337;SHT30;53139;45.576;5.304;2022-08-04T22:08:44;29.30;32.97
66337;SHT30;53139;45.576;5.304;2022-08-04T22:11:44;29.23;33.17
66337;SHT30;53139;45.576;5.304;2022-08-04T22:14:45;29.22;33.29
66337;SHT30;53139;45.576;5.304;2022-08-04T22:17:45;29.09;33.50
66337;SHT30;53139;45.576;5.304;2022-08-04T22:20:45;29.08;33.57
66337;SHT30;53139;45.576;5.304;2022-08-04T22:23:46;28.95;33.79
66337;SHT30;53139;45.576;5.304;2022-08-04T22:26:47;28.94;33.80
66337;SHT30;53139;45.576;5.304;2022-08-04T22:29:48;28.79;34.32
66337;SHT30;53139;45.576;5.304;2022-08-04T22:32:48;28.90;34.11
66337;SHT30;53139;45.576;5.304;2022-08-04T22:35:49;28.87;34.14
66337;SHT30;53139;45.576;5.304;2022-08-04T22:38:49;28.68;34.53
66337;SHT30;53139;45.576;5.304;2022-08-04T22:41:50;28.53;34.92
66337;SHT30;53139;45.576;5.304;2022-08-04T22:44:52;28.51;34.87
66337;SHT30;53139;45.576;5.304;2022-08-04T22:47:52;28.55;34.73
66337;SHT30;53139;45.576;5.304;2022-08-04T22:50:53;28.43;34.63
66337;SHT30;53139;45.576;5.304;2022-08-04T22:53:53;28.46;34.75
66337;SHT30;53139;45.576;5.304;2022-08-04T22:56:54;28.41;34.48
66337;SHT30;53139;45.576;5.304;2022-08-04T22:59:54;28.40;34.52
66337;SHT30;53139;45.576;5.304;2022-08-04T23:02:55;28.13;35.19
66337;SHT30;53139;45.576;5.304;2022-08-04T23:05:55;28.40;34.66
66337;SHT30;53139;45.576;5.304;2022-08-04T23:08:56;28.26;34.89
66337;SHT30;53139;45.576;5.304;2022-08-04T23:11:56;28.36;34.42
66337;SHT30;53139;45.576;5.304;2022-08-04T23:14:57;28.26;34.48
66337;SHT30;53139;45.576;5.304;2022-08-04T23:17:58;28.20;34.46
66337;SHT30;53139;45.576;5.304;2022-08-04T23:20:58;28.12;34.79
66337;SHT30;53139;45.576;5.304;2022-08-04T23:23:58;28.05;34.54